sensor_id;sensor_type;location;lat;lon;timestamp;P1;durP1;ratioP1;P2;durP2;ratioP2
20324;SDS011;10320;49.482;11.256;2024-01-30T00:01:28;9.57;;;8.40;;
20324;SDS011;10320;49.482;11.256;2024-01-30T00:03:54;11.07;;;9.27;;
20324;SDS011;10320;49.482;11.256;2024-01-30T00:06:20;9.53;;;8.50;;
20324;SDS011;10320;49.482;11.256;2024-01-30T00:08:47;10.77;;;9.57;;
20324;SDS011;10320;49.482;11.256;2024-01-30T00:11:14;9.03;;;8.13;;
20324;SDS011;10320;49.482;11.256;2024-01-30T00:13:40;10.60;;;8.77;;
20324;SDS011;10320;49.482;11.256;2024-01-30T00:16:06;11.47;;;9.43;;
20324;SDS011;10320;49.482;11.256;2024-01-30T00:18:33;12.07;;;8.97;;
20324;SDS011;10320;49.482;11.256;2024-01-30T00:20:59;10.27;;;8.83;;
20324;SDS011;10320;49.482;11.256;2024-01-30T00:23:25;11.63;;;9.40;;
20324;SDS011;10320;49.482;11.256;2024-01-30T00:25:51;10.23;;;8.83;;
20324;SDS011;10320;49.482;11.256;2024-01-30T00:28:17;10.70;;;8.40;;
20324;SDS011;10320;49.482;11.256;2024-01-30T00:30:43;11.60;;;9.47;;
20324;SDS011;10320;49.482;11.256;2024-01-30T00:33:09;11.17;;;8.47;;
20324;SDS011;10320;49.482;11.256;2024-01-30T00:35:35;12.73;;;9.67;;
20324;SDS011;10320;49.482;11.256;2024-01-30T00:38:01;10.70;;;8.50;;
20324;SDS011;10320;49.482;11.256;2024-01-30T00:40:27;11.10;;;8.77;;
20324;SDS011;10320;49.482;11.256;2024-01-30T00:42:53;10.83;;;8.93;;
20324;SDS011;10320;49.482;11.256;2024-01-30T00:45:19;9.97;;;8.77;;
20324;SDS011;10320;49.482;11.256;2024-01-30T00:47:45;10.70;;;9.23;;
20324;SDS011;10320;49.482;11.256;2024-01-30T00:50:11;10.30;;;9.20;;
20324;SDS011;10320;49.482;11.256;2024-01-30T00:52:37;12.67;;;9.23;;
20324;SDS011;10320;49.482;11.256;2024-01-30T00:55:04;9.93;;;8.70;;
20324;SDS011;10320;49.482;11.256;2024-01-30T00:57:30;11.93;;;8.93;;
20324;SDS011;10320;49.482;11.256;2024-01-30T00:59:56;9.33;;;8.27;;
20324;SDS011;10320;49.482;11.256;2024-01-30T01:02:22;11.67;;;8.87;;
20324;SDS011;10320;49.482;11.256;2024-01-30T01:04:48;11.50;;;8.17;;
20324;SDS011;10320;49.482;11.256;2024-01-30T01:07:15;10.80;;;8.97;;
20324;SDS011;10320;49.482;11.256;2024-01-30T01:09:41;11.07;;;8.17;;
20324;SDS011;10320;49.482;11.256;2024-01-30T01:12:07;11.77;;;9.00;;
20324;SDS011;10320;49.482;11.256;2024-01-30T01:14:33;9.40;;;8.40;;
20324;SDS011;10320;49.482;11.256;2024-01-30T01:16:59;9.37;;;8.20;;
20324;SDS011;10320;49.482;11.256;2024-01-30T01:19:25;9.73;;;8.30;;
20324;SDS011;10320;49.482;11.256;2024-01-30T01:21:51;10.67;;;8.57;;
20324;SDS011;10320;49.482;11.256;2024-01-30T01:24:17;10.87;;;7.70;;
20324;SDS011;10320;49.482;11.256;2024-01-30T01:26:43;8.10;;;7.23;;
20324;SDS011;10320;49.482;11.256;2024-01-30T01:29:09;9.60;;;7.60;;
20324;SDS011;10320;49.482;11.256;2024-01-30T01:31:37;8.40;;;7.57;;
20324;SDS011;10320;49.482;11.256;2024-01-30T01:34:12;8.27;;;7.47;;
20324;SDS011;10320;49.482;11.256;2024-01-30T01:36:39;8.03;;;7.23;;
20324;SDS011;10320;49.482;11.256;2024-01-30T01:39:05;10.40;;;7.93;;
20324;SDS011;10320;49.482;11.256;2024-01-30T01:41:34;8.47;;;7.57;;
20324;SDS011;10320;49.482;11.256;2024-01-30T01:44:00;8.37;;;7.20;;
20324;SDS011;10320;49.482;11.256;2024-01-30T01:46:28;9.43;;;7.73;;
20324;SDS011;10320;49.482;11.256;2024-01-30T01:48:55;7.97;;;7.17;;
20324;SDS011;10320;49.482;11.256;2024-01-30T01:51:22;9.73;;;7.13;;
20324;SDS011;10320;49.482;11.256;2024-01-30T01:53:50;9.20;;;7.33;;
20324;SDS011;10320;49.482;11.256;2024-01-30T01:56:16;8.67;;;6.90;;
20324;SDS011;10320;49.482;11.256;2024-01-30T01:58:42;9.40;;;7.37;;
20324;SDS011;10320;49.482;11.256;2024-01-30T02:01:10;8.73;;;6.90;;
20324;SDS011;10320;49.482;11.256;2024-01-30T02:03:36;7.90;;;6.90;;
20324;SDS011;10320;49.482;11.256;2024-01-30T02:06:03;9.67;;;7.23;;
20324;SDS011;10320;49.482;11.256;2024-01-30T02:08:30;8.67;;;7.03;;
20324;SDS011;10320;49.482;11.256;2024-01-30T02:10:56;8.50;;;6.63;;
20324;SDS011;10320;49.482;11.256;2024-01-30T02:13:22;9.90;;;7.37;;
20324;SDS011;10320;49.482;11.256;2024-01-30T02:15:51;8.50;;;7.20;;
20324;SDS011;10320;49.482;11.256;2024-01-30T02:18:18;8.40;;;6.80;;
20324;SDS011;10320;49.482;11.256;2024-01-30T02:20:44;8.10;;;6.63;;
20324;SDS011;10320;49.482;11.256;2024-01-30T02:23:11;7.40;;;6.50;;
20324;SDS011;10320;49.482;11.256;2024-01-30T02:25:39;8.33;;;5.90;;
20324;SDS011;10320;49.482;11.256;2024-01-30T02:28:14;7.40;;;6.20;;
20324;SDS011;10320;49.482;11.256;2024-01-30T02:30:42;8.33;;;6.43;;
20324;SDS011;10320;49.482;11.256;2024-01-30T02:33:08;6.80;;;6.10;;
20324;SDS011;10320;49.482;11.256;2024-01-30T02:35:34;7.50;;;6.20;;
20324;SDS011;10320;49.482;11.256;2024-01-30T02:38:00;8.60;;;6.27;;
20324;SDS011;10320;49.482;11.256;2024-01-30T02:40:26;8.53;;;6.60;;
20324;SDS011;10320;49.482;11.256;2024-01-30T02:42:52;8.47;;;6.50;;
20324;SDS011;10320;49.482;11.256;2024-01-30T02:45:18;8.43;;;6.73;;
20324;SDS011;10320;49.482;11.256;2024-01-30T02:47:45;8.40;;;6.20;;
20324;SDS011;10320;49.482;11.256;2024-01-30T02:50:11;7.93;;;6.27;;
20324;SDS011;10320;49.482;11.256;2024-01-30T02:52:37;7.63;;;6.27;;
20324;SDS011;10320;49.482;11.256;2024-01-30T02:55:03;8.27;;;6.60;;
20324;SDS011;10320;49.482;11.256;2024-01-30T02:57:29;7.10;;;6.10;;
20324;SDS011;10320;49.482;11.256;2024-01-30T02:59:55;7.07;;;6.37;;
20324;SDS011;10320;49.482;11.256;2024-01-30T03:02:21;6.70;;;6.03;;
20324;SDS011;10320;49.482;11.256;2024-01-30T03:04:47;7.30;;;6.33;;
20324;SDS011;10320;49.482;11.256;2024-01-30T03:07:13;9.37;;;7.00;;
20324;SDS011;10320;49.482;11.256;2024-01-30T03:09:40;8.83;;;6.90;;
20324;SDS011;10320;49.482;11.256;2024-01-30T03:12:07;8.57;;;6.67;;
20324;SDS011;10320;49.482;11.256;2024-01-30T03:14:33;7.43;;;6.03;;
20324;SDS011;10320;49.482;11.256;2024-01-30T03:16:59;9.30;;;6.27;;
20324;SDS011;10320;49.482;11.256;2024-01-30T03:19:25;6.93;;;6.23;;
20324;SDS011;10320;49.482;11.256;2024-01-30T03:21:51;7.47;;;6.33;;
20324;SDS011;10320;49.482;11.256;2024-01-30T03:24:17;6.97;;;6.27;;
20324;SDS011;10320;49.482;11.256;2024-01-30T03:26:43;7.87;;;6.20;;
20324;SDS011;10320;49.482;11.256;2024-01-30T03:29:09;9.53;;;6.40;;
20324;SDS011;10320;49.482;11.256;2024-01-30T03:31:35;9.60;;;6.17;;
20324;SDS011;10320;49.482;11.256;2024-01-30T03:34:02;8.50;;;6.00;;
20324;SDS011;10320;49.482;11.256;2024-01-30T03:36:28;8.23;;;6.40;;
20324;SDS011;10320;49.482;11.256;2024-01-30T03:38:57;7.50;;;6.07;;
20324;SDS011;10320;49.482;11.256;2024-01-30T03:41:23;6.37;;;5.67;;
20324;SDS011;10320;49.482;11.256;2024-01-30T03:43:49;8.90;;;6.00;;
20324;SDS011;10320;49.482;11.256;2024-01-30T03:46:15;7.57;;;5.97;;
20324;SDS011;10320;49.482;11.256;2024-01-30T03:48:41;8.10;;;6.20;;
20324;SDS011;10320;49.482;11.256;2024-01-30T03:51:07;7.03;;;5.80;;
20324;SDS011;10320;49.482;11.256;2024-01-30T03:53:39;8.80;;;6.27;;
20324;SDS011;10320;49.482;11.256;2024-01-30T03:56:05;6.60;;;5.90;;
20324;SDS011;10320;49.482;11.256;2024-01-30T03:58:31;6.47;;;5.77;;
20324;SDS011;10320;49.482;11.256;2024-01-30T04:00:57;6.87;;;5.93;;
20324;SDS011;10320;49.482;11.256;2024-01-30T04:03:23;6.47;;;5.73;;
20324;SDS011;10320;49.482;11.256;2024-01-30T04:05:49;6.60;;;5.70;;
20324;SDS011;10320;49.482;11.256;2024-01-30T04:08:15;7.13;;;6.20;;
20324;SDS011;10320;49.482;11.256;2024-01-30T04:10:41;7.90;;;6.00;;
20324;SDS011;10320;49.482;11.256;2024-01-30T04:13:07;6.77;;;5.67;;
20324;SDS011;10320;49.482;11.256;2024-01-30T04:15:34;10.47;;;5.90;;
20324;SDS011;10320;49.482;11.256;2024-01-30T04:18:00;8.63;;;6.07;;
20324;SDS011;10320;49.482;11.256;2024-01-30T04:20:26;6.60;;;5.90;;
20324;SDS011;10320;49.482;11.256;2024-01-30T04:22:52;6.40;;;5.77;;
20324;SDS011;10320;49.482;11.256;2024-01-30T04:25:18;8.07;;;5.70;;
20324;SDS011;10320;49.482;11.256;2024-01-30T04:27:44;9.60;;;6.50;;
20324;SDS011;10320;49.482;11.256;2024-01-30T04:30:10;7.40;;;5.87;;
20324;SDS011;10320;49.482;11.256;2024-01-30T04:32:36;7.50;;;5.90;;
20324;SDS011;10320;49.482;11.256;2024-01-30T04:35:03;9.10;;;6.30;;
20324;SDS011;10320;49.482;11.256;2024-01-30T04:37:29;7.20;;;6.23;;
20324;SDS011;10320;49.482;11.256;2024-01-30T04:39:55;10.10;;;6.40;;
20324;SDS011;10320;49.482;11.256;2024-01-30T04:42:21;6.90;;;5.77;;
20324;SDS011;10320;49.482;11.256;2024-01-30T04:44:47;7.80;;;5.90;;
20324;SDS011;10320;49.482;11.256;2024-01-30T04:47:13;7.17;;;5.67;;
20324;SDS011;10320;49.482;11.256;2024-01-30T04:49:39;8.30;;;6.20;;
20324;SDS011;10320;49.482;11.256;2024-01-30T04:52:05;8.13;;;5.97;;
20324;SDS011;10320;49.482;11.256;2024-01-30T04:54:31;6.83;;;5.60;;
20324;SDS011;10320;49.482;11.256;2024-01-30T04:56:57;6.60;;;5.47;;
20324;SDS011;10320;49.482;11.256;2024-01-30T04:59:24;7.17;;;5.70;;
20324;SDS011;10320;49.482;11.256;2024-01-30T05:01:50;7.10;;;5.20;;
20324;SDS011;10320;49.482;11.256;2024-01-30T05:04:16;6.23;;;5.43;;
20324;SDS011;10320;49.482;11.256;2024-01-30T05:06:42;6.27;;;5.20;;
20324;SDS011;10320;49.482;11.256;2024-01-30T05:09:08;6.60;;;5.47;;
20324;SDS011;10320;49.482;11.256;2024-01-30T05:11:38;7.50;;;5.37;;
20324;SDS011;10320;49.482;11.256;2024-01-30T05:14:04;7.73;;;5.33;;
20324;SDS011;10320;49.482;11.256;2024-01-30T05:16:30;7.10;;;5.57;;
20324;SDS011;10320;49.482;11.256;2024-01-30T05:18:56;5.67;;;5.17;;
20324;SDS011;10320;49.482;11.256;2024-01-30T05:21:22;6.40;;;5.37;;
20324;SDS011;10320;49.482;11.256;2024-01-30T05:23:48;6.83;;;5.83;;
20324;SDS011;10320;49.482;11.256;2024-01-30T05:26:14;6.87;;;5.40;;
20324;SDS011;10320;49.482;11.256;2024-01-30T05:28:40;6.20;;;5.30;;
20324;SDS011;10320;49.482;11.256;2024-01-30T05:31:06;8.10;;;5.70;;
20324;SDS011;10320;49.482;11.256;2024-01-30T05:33:32;5.77;;;5.00;;
20324;SDS011;10320;49.482;11.256;2024-01-30T05:35:58;6.53;;;5.80;;
20324;SDS011;10320;49.482;11.256;2024-01-30T05:38:24;6.60;;;5.77;;
20324;SDS011;10320;49.482;11.256;2024-01-30T05:40:50;8.90;;;5.40;;
20324;SDS011;10320;49.482;11.256;2024-01-30T05:43:17;6.50;;;5.33;;
20324;SDS011;10320;49.482;11.256;2024-01-30T05:45:42;7.33;;;5.63;;
20324;SDS011;10320;49.482;11.256;2024-01-30T05:48:09;8.50;;;5.67;;
20324;SDS011;10320;49.482;11.256;2024-01-30T05:50:35;7.20;;;6.23;;
20324;SDS011;10320;49.482;11.256;2024-01-30T05:53:01;6.07;;;5.33;;
20324;SDS011;10320;49.482;11.256;2024-01-30T05:55:27;6.73;;;6.03;;
20324;SDS011;10320;49.482;11.256;2024-01-30T05:57:53;8.10;;;6.03;;
20324;SDS011;10320;49.482;11.256;2024-01-30T06:00:19;7.37;;;5.57;;
20324;SDS011;10320;49.482;11.256;2024-01-30T06:02:45;8.07;;;6.20;;
20324;SDS011;10320;49.482;11.256;2024-01-30T06:05:11;7.33;;;6.63;;
20324;SDS011;10320;49.482;11.256;2024-01-30T06:07:37;7.20;;;6.20;;
20324;SDS011;10320;49.482;11.256;2024-01-30T06:10:04;7.43;;;6.30;;
20324;SDS011;10320;49.482;11.256;2024-01-30T06:12:30;7.10;;;6.10;;
20324;SDS011;10320;49.482;11.256;2024-01-30T06:14:56;7.33;;;6.27;;
20324;SDS011;10320;49.482;11.256;2024-01-30T06:17:22;8.30;;;6.73;;
20324;SDS011;10320;49.482;11.256;2024-01-30T06:19:48;6.93;;;6.23;;
20324;SDS011;10320;49.482;11.256;2024-01-30T06:22:15;7.63;;;6.47;;
20324;SDS011;10320;49.482;11.256;2024-01-30T06:24:41;8.93;;;6.90;;
20324;SDS011;10320;49.482;11.256;2024-01-30T06:27:10;9.13;;;6.80;;
20324;SDS011;10320;49.482;11.256;2024-01-30T06:29:36;7.27;;;6.47;;
20324;SDS011;10320;49.482;11.256;2024-01-30T06:32:02;8.70;;;6.30;;
20324;SDS011;10320;49.482;11.256;2024-01-30T06:34:28;9.23;;;7.00;;
20324;SDS011;10320;49.482;11.256;2024-01-30T06:36:54;7.17;;;6.43;;
20324;SDS011;10320;49.482;11.256;2024-01-30T06:39:20;11.67;;;9.57;;
20324;SDS011;10320;49.482;11.256;2024-01-30T06:41:46;13.63;;;10.73;;
20324;SDS011;10320;49.482;11.256;2024-01-30T06:44:12;13.37;;;10.93;;
20324;SDS011;10320;49.482;11.256;2024-01-30T06:46:38;24.67;;;17.87;;
20324;SDS011;10320;49.482;11.256;2024-01-30T06:49:04;16.07;;;11.60;;
20324;SDS011;10320;49.482;11.256;2024-01-30T06:51:30;26.40;;;20.27;;
20324;SDS011;10320;49.482;11.256;2024-01-30T06:53:56;51.37;;;36.40;;
20324;SDS011;10320;49.482;11.256;2024-01-30T06:56:23;25.63;;;19.23;;
20324;SDS011;10320;49.482;11.256;2024-01-30T06:58:49;20.27;;;16.10;;
20324;SDS011;10320;49.482;11.256;2024-01-30T07:01:15;14.27;;;11.83;;
20324;SDS011;10320;49.482;11.256;2024-01-30T07:03:42;12.60;;;10.80;;
20324;SDS011;10320;49.482;11.256;2024-01-30T07:06:08;12.10;;;8.20;;
20324;SDS011;10320;49.482;11.256;2024-01-30T07:08:35;9.80;;;8.07;;
20324;SDS011;10320;49.482;11.256;2024-01-30T07:11:03;9.13;;;8.10;;
20324;SDS011;10320;49.482;11.256;2024-01-30T07:13:29;9.87;;;8.30;;
20324;SDS011;10320;49.482;11.256;2024-01-30T07:15:55;9.73;;;8.47;;
20324;SDS011;10320;49.482;11.256;2024-01-30T07:18:21;8.10;;;7.17;;
20324;SDS011;10320;49.482;11.256;2024-01-30T07:20:47;10.90;;;8.57;;
20324;SDS011;10320;49.482;11.256;2024-01-30T07:23:14;9.90;;;8.57;;
20324;SDS011;10320;49.482;11.256;2024-01-30T07:25:42;10.27;;;8.57;;
20324;SDS011;10320;49.482;11.256;2024-01-30T07:28:08;10.67;;;8.10;;
20324;SDS011;10320;49.482;11.256;2024-01-30T07:30:35;12.00;;;8.93;;
20324;SDS011;10320;49.482;11.256;2024-01-30T07:33:02;11.67;;;8.37;;
20324;SDS011;10320;49.482;11.256;2024-01-30T07:35:28;10.03;;;8.30;;
20324;SDS011;10320;49.482;11.256;2024-01-30T07:37:54;11.47;;;8.83;;
20324;SDS011;10320;49.482;11.256;2024-01-30T07:40:21;10.07;;;8.70;;
20324;SDS011;10320;49.482;11.256;2024-01-30T07:42:48;10.13;;;9.07;;
20324;SDS011;10320;49.482;11.256;2024-01-30T07:45:14;9.90;;;8.33;;
20324;SDS011;10320;49.482;11.256;2024-01-30T07:47:40;9.53;;;8.50;;
20324;SDS011;10320;49.482;11.256;2024-01-30T07:50:07;10.73;;;8.43;;
20324;SDS011;10320;49.482;11.256;2024-01-30T07:52:33;10.03;;;7.80;;
20324;SDS011;10320;49.482;11.256;2024-01-30T07:54:59;9.43;;;8.43;;
20324;SDS011;10320;49.482;11.256;2024-01-30T07:57:25;9.77;;;8.27;;
20324;SDS011;10320;49.482;11.256;2024-01-30T07:59:51;11.37;;;8.30;;
20324;SDS011;10320;49.482;11.256;2024-01-30T08:02:17;11.80;;;8.63;;
20324;SDS011;10320;49.482;11.256;2024-01-30T08:04:43;12.83;;;8.20;;
20324;SDS011;10320;49.482;11.256;2024-01-30T08:07:13;10.63;;;8.50;;
20324;SDS011;10320;49.482;11.256;2024-01-30T08:09:39;11.27;;;8.67;;
20324;SDS011;10320;49.482;11.256;2024-01-30T08:12:05;11.20;;;8.20;;
20324;SDS011;10320;49.482;11.256;2024-01-30T08:14:31;9.77;;;8.40;;
20324;SDS011;10320;49.482;11.256;2024-01-30T08:16:57;11.53;;;8.60;;
20324;SDS011;10320;49.482;11.256;2024-01-30T08:19:23;12.80;;;8.27;;
20324;SDS011;10320;49.482;11.256;2024-01-30T08:21:49;10.17;;;8.03;;
20324;SDS011;10320;49.482;11.256;2024-01-30T08:24:15;9.13;;;7.53;;
20324;SDS011;10320;49.482;11.256;2024-01-30T08:26:41;11.20;;;8.30;;
20324;SDS011;10320;49.482;11.256;2024-01-30T08:29:07;8.87;;;7.70;;
20324;SDS011;10320;49.482;11.256;2024-01-30T08:31:33;11.83;;;8.53;;
20324;SDS011;10320;49.482;11.256;2024-01-30T08:33:59;10.30;;;8.10;;
20324;SDS011;10320;49.482;11.256;2024-01-30T08:36:25;11.17;;;8.93;;
20324;SDS011;10320;49.482;11.256;2024-01-30T08:38:51;10.73;;;8.73;;
20324;SDS011;10320;49.482;11.256;2024-01-30T08:41:17;11.93;;;8.80;;
20324;SDS011;10320;49.482;11.256;2024-01-30T08:43:43;10.27;;;8.10;;
20324;SDS011;10320;49.482;11.256;2024-01-30T08:46:09;10.70;;;8.10;;
20324;SDS011;10320;49.482;11.256;2024-01-30T08:48:35;11.93;;;8.80;;
20324;SDS011;10320;49.482;11.256;2024-01-30T08:51:01;11.90;;;8.73;;
20324;SDS011;10320;49.482;11.256;2024-01-30T08:53:28;11.87;;;10.13;;
20324;SDS011;10320;49.482;11.256;2024-01-30T08:55:54;13.67;;;9.67;;
20324;SDS011;10320;49.482;11.256;2024-01-30T08:58:20;11.40;;;9.17;;
20324;SDS011;10320;49.482;11.256;2024-01-30T09:00:46;13.60;;;10.47;;
20324;SDS011;10320;49.482;11.256;2024-01-30T09:03:12;10.77;;;9.37;;
20324;SDS011;10320;49.482;11.256;2024-01-30T09:05:38;11.67;;;9.50;;
20324;SDS011;10320;49.482;11.256;2024-01-30T09:08:04;11.07;;;8.80;;
20324;SDS011;10320;49.482;11.256;2024-01-30T09:10:30;14.50;;;10.67;;
20324;SDS011;10320;49.482;11.256;2024-01-30T09:12:56;13.23;;;9.50;;
20324;SDS011;10320;49.482;11.256;2024-01-30T09:15:22;10.30;;;9.10;;
20324;SDS011;10320;49.482;11.256;2024-01-30T09:17:49;11.97;;;9.47;;
20324;SDS011;10320;49.482;11.256;2024-01-30T09:20:15;11.83;;;9.63;;
20324;SDS011;10320;49.482;11.256;2024-01-30T09:22:41;12.80;;;9.93;;
20324;SDS011;10320;49.482;11.256;2024-01-30T09:25:07;13.43;;;10.80;;
20324;SDS011;10320;49.482;11.256;2024-01-30T09:27:34;12.93;;;10.47;;
20324;SDS011;10320;49.482;11.256;2024-01-30T09:29:59;13.50;;;10.60;;
20324;SDS011;10320;49.482;11.256;2024-01-30T09:32:25;13.70;;;10.30;;
20324;SDS011;10320;49.482;11.256;2024-01-30T09:34:51;13.53;;;11.13;;
20324;SDS011;10320;49.482;11.256;2024-01-30T09:37:17;13.33;;;10.77;;
20324;SDS011;10320;49.482;11.256;2024-01-30T09:39:43;14.00;;;10.67;;
20324;SDS011;10320;49.482;11.256;2024-01-30T09:44:45;14.47;;;10.10;;
20324;SDS011;10320;49.482;11.256;2024-01-30T09:47:12;12.87;;;11.00;;
20324;SDS011;10320;49.482;11.256;2024-01-30T09:49:39;12.60;;;10.60;;
20324;SDS011;10320;49.482;11.256;2024-01-30T09:52:06;16.67;;;11.80;;
20324;SDS011;10320;49.482;11.256;2024-01-30T09:54:33;13.53;;;11.03;;
20324;SDS011;10320;49.482;11.256;2024-01-30T09:56:59;13.17;;;10.80;;
20324;SDS011;10320;49.482;11.256;2024-01-30T09:59:25;13.10;;;11.10;;
20324;SDS011;10320;49.482;11.256;2024-01-30T10:01:51;13.10;;;11.17;;
20324;SDS011;10320;49.482;11.256;2024-01-30T10:04:17;13.63;;;10.37;;
20324;SDS011;10320;49.482;11.256;2024-01-30T10:06:44;14.00;;;11.50;;
20324;SDS011;10320;49.482;11.256;2024-01-30T10:09:10;13.80;;;10.63;;
20324;SDS011;10320;49.482;11.256;2024-01-30T10:11:36;12.10;;;10.67;;
20324;SDS011;10320;49.482;11.256;2024-01-30T10:14:02;14.53;;;11.83;;
20324;SDS011;10320;49.482;11.256;2024-01-30T10:16:28;14.67;;;11.47;;
20324;SDS011;10320;49.482;11.256;2024-01-30T10:18:54;15.63;;;11.67;;
20324;SDS011;10320;49.482;11.256;2024-01-30T10:21:20;14.27;;;11.13;;
20324;SDS011;10320;49.482;11.256;2024-01-30T10:23:46;14.07;;;11.23;;
20324;SDS011;10320;49.482;11.256;2024-01-30T10:26:12;14.90;;;12.07;;
20324;SDS011;10320;49.482;11.256;2024-01-30T10:28:39;14.63;;;11.63;;
20324;SDS011;10320;49.482;11.256;2024-01-30T10:31:04;15.00;;;11.80;;
20324;SDS011;10320;49.482;11.256;2024-01-30T10:33:31;12.80;;;10.97;;
20324;SDS011;10320;49.482;11.256;2024-01-30T10:36:01;13.73;;;11.20;;
20324;SDS011;10320;49.482;11.256;2024-01-30T10:38:30;12.90;;;10.93;;
20324;SDS011;10320;49.482;11.256;2024-01-30T10:40:57;15.67;;;11.30;;
20324;SDS011;10320;49.482;11.256;2024-01-30T10:43:24;14.10;;;11.17;;
20324;SDS011;10320;49.482;11.256;2024-01-30T10:45:52;13.30;;;10.80;;
20324;SDS011;10320;49.482;11.256;2024-01-30T10:48:19;13.47;;;10.77;;
20324;SDS011;10320;49.482;11.256;2024-01-30T10:50:47;14.10;;;10.87;;
20324;SDS011;10320;49.482;11.256;2024-01-30T10:53:13;15.63;;;11.60;;
20324;SDS011;10320;49.482;11.256;2024-01-30T10:55:40;11.00;;;9.80;;
20324;SDS011;10320;49.482;11.256;2024-01-30T10:58:06;12.93;;;10.63;;
20324;SDS011;10320;49.482;11.256;2024-01-30T11:00:35;14.00;;;11.77;;
20324;SDS011;10320;49.482;11.256;2024-01-30T11:03:01;14.80;;;10.80;;
20324;SDS011;10320;49.482;11.256;2024-01-30T11:05:28;14.10;;;11.10;;
20324;SDS011;10320;49.482;11.256;2024-01-30T11:07:54;16.40;;;10.73;;
20324;SDS011;10320;49.482;11.256;2024-01-30T11:10:21;11.70;;;10.37;;
20324;SDS011;10320;49.482;11.256;2024-01-30T11:12:47;14.37;;;10.67;;
20324;SDS011;10320;49.482;11.256;2024-01-30T11:15:15;13.97;;;10.73;;
20324;SDS011;10320;49.482;11.256;2024-01-30T11:17:42;14.43;;;11.03;;
20324;SDS011;10320;49.482;11.256;2024-01-30T11:20:12;13.83;;;10.73;;
20324;SDS011;10320;49.482;11.256;2024-01-30T11:22:41;14.13;;;10.67;;
20324;SDS011;10320;49.482;11.256;2024-01-30T11:25:11;14.37;;;10.87;;
20324;SDS011;10320;49.482;11.256;2024-01-30T11:27:37;14.13;;;10.77;;
20324;SDS011;10320;49.482;11.256;2024-01-30T11:30:03;13.87;;;11.07;;
20324;SDS011;10320;49.482;11.256;2024-01-30T11:32:30;12.77;;;10.57;;
20324;SDS011;10320;49.482;11.256;2024-01-30T11:34:56;14.40;;;10.97;;
20324;SDS011;10320;49.482;11.256;2024-01-30T11:37:22;12.20;;;10.90;;
20324;SDS011;10320;49.482;11.256;2024-01-30T11:39:50;13.13;;;10.70;;
20324;SDS011;10320;49.482;11.256;2024-01-30T11:42:17;13.77;;;9.53;;
20324;SDS011;10320;49.482;11.256;2024-01-30T11:44:49;13.20;;;9.87;;
20324;SDS011;10320;49.482;11.256;2024-01-30T11:47:15;13.30;;;10.07;;
20324;SDS011;10320;49.482;11.256;2024-01-30T11:49:42;12.93;;;10.47;;
20324;SDS011;10320;49.482;11.256;2024-01-30T11:52:08;13.20;;;9.53;;
20324;SDS011;10320;49.482;11.256;2024-01-30T11:54:35;13.43;;;9.90;;
20324;SDS011;10320;49.482;11.256;2024-01-30T11:57:04;11.97;;;9.83;;
20324;SDS011;10320;49.482;11.256;2024-01-30T11:59:30;15.03;;;9.90;;
20324;SDS011;10320;49.482;11.256;2024-01-30T12:01:56;12.60;;;10.47;;
20324;SDS011;10320;49.482;11.256;2024-01-30T12:04:22;19.60;;;14.30;;
20324;SDS011;10320;49.482;11.256;2024-01-30T12:06:51;14.03;;;10.67;;
20324;SDS011;10320;49.482;11.256;2024-01-30T12:09:17;12.47;;;10.57;;
20324;SDS011;10320;49.482;11.256;2024-01-30T12:11:46;15.03;;;11.20;;
20324;SDS011;10320;49.482;11.256;2024-01-30T12:14:13;15.43;;;11.80;;
20324;SDS011;10320;49.482;11.256;2024-01-30T12:16:40;13.40;;;10.77;;
20324;SDS011;10320;49.482;11.256;2024-01-30T12:19:08;12.70;;;11.00;;
20324;SDS011;10320;49.482;11.256;2024-01-30T12:21:34;13.10;;;10.33;;
20324;SDS011;10320;49.482;11.256;2024-01-30T12:24:01;11.50;;;10.30;;
20324;SDS011;10320;49.482;11.256;2024-01-30T12:26:27;13.00;;;10.60;;
20324;SDS011;10320;49.482;11.256;2024-01-30T12:28:54;14.73;;;9.80;;
20324;SDS011;10320;49.482;11.256;2024-01-30T12:31:31;12.40;;;10.43;;
20324;SDS011;10320;49.482;11.256;2024-01-30T12:34:01;13.20;;;9.87;;
20324;SDS011;10320;49.482;11.256;2024-01-30T12:36:28;12.23;;;9.77;;
20324;SDS011;10320;49.482;11.256;2024-01-30T12:38:56;13.27;;;10.40;;
20324;SDS011;10320;49.482;11.256;2024-01-30T12:41:22;13.37;;;10.70;;
20324;SDS011;10320;49.482;11.256;2024-01-30T12:43:53;13.90;;;10.70;;
20324;SDS011;10320;49.482;11.256;2024-01-30T12:46:19;10.60;;;9.00;;
20324;SDS011;10320;49.482;11.256;2024-01-30T12:48:45;12.13;;;10.63;;
20324;SDS011;10320;49.482;11.256;2024-01-30T12:51:11;15.03;;;10.80;;
20324;SDS011;10320;49.482;11.256;2024-01-30T12:53:37;12.63;;;10.20;;
20324;SDS011;10320;49.482;11.256;2024-01-30T12:56:03;12.40;;;10.00;;
20324;SDS011;10320;49.482;11.256;2024-01-30T12:58:29;12.67;;;10.00;;
20324;SDS011;10320;49.482;11.256;2024-01-30T13:00:55;9.57;;;8.57;;
20324;SDS011;10320;49.482;11.256;2024-01-30T13:03:21;11.17;;;9.10;;
20324;SDS011;10320;49.482;11.256;2024-01-30T13:05:47;9.13;;;8.23;;
20324;SDS011;10320;49.482;11.256;2024-01-30T13:08:14;9.50;;;8.30;;
20324;SDS011;10320;49.482;11.256;2024-01-30T13:10:40;9.13;;;8.13;;
20324;SDS011;10320;49.482;11.256;2024-01-30T13:13:05;11.57;;;8.30;;
20324;SDS011;10320;49.482;11.256;2024-01-30T13:15:31;11.97;;;9.00;;
20324;SDS011;10320;49.482;11.256;2024-01-30T13:17:57;12.87;;;9.00;;
20324;SDS011;10320;49.482;11.256;2024-01-30T13:20:23;11.87;;;8.90;;
20324;SDS011;10320;49.482;11.256;2024-01-30T13:22:49;10.63;;;8.73;;
20324;SDS011;10320;49.482;11.256;2024-01-30T13:25:15;11.60;;;9.20;;
20324;SDS011;10320;49.482;11.256;2024-01-30T13:27:41;14.30;;;9.63;;
20324;SDS011;10320;49.482;11.256;2024-01-30T13:30:08;13.07;;;10.60;;
20324;SDS011;10320;49.482;11.256;2024-01-30T13:32:34;14.17;;;11.97;;
20324;SDS011;10320;49.482;11.256;2024-01-30T13:35:00;14.07;;;11.63;;
20324;SDS011;10320;49.482;11.256;2024-01-30T13:37:26;11.80;;;9.67;;
20324;SDS011;10320;49.482;11.256;2024-01-30T13:39:53;12.37;;;9.37;;
20324;SDS011;10320;49.482;11.256;2024-01-30T13:42:19;12.50;;;10.00;;
20324;SDS011;10320;49.482;11.256;2024-01-30T13:44:45;13.03;;;10.90;;
20324;SDS011;10320;49.482;11.256;2024-01-30T13:47:10;11.80;;;10.03;;
20324;SDS011;10320;49.482;11.256;2024-01-30T13:49:36;14.80;;;11.90;;
20324;SDS011;10320;49.482;11.256;2024-01-30T13:52:02;14.87;;;12.00;;
20324;SDS011;10320;49.482;11.256;2024-01-30T13:54:29;13.50;;;10.17;;
20324;SDS011;10320;49.482;11.256;2024-01-30T13:56:55;12.17;;;9.43;;
20324;SDS011;10320;49.482;11.256;2024-01-30T13:59:21;11.17;;;9.20;;
20324;SDS011;10320;49.482;11.256;2024-01-30T14:01:50;12.10;;;9.87;;
20324;SDS011;10320;49.482;11.256;2024-01-30T14:04:16;12.03;;;8.17;;
20324;SDS011;10320;49.482;11.256;2024-01-30T14:06:43;9.73;;;7.30;;
20324;SDS011;10320;49.482;11.256;2024-01-30T14:09:09;9.77;;;7.67;;
20324;SDS011;10320;49.482;11.256;2024-01-30T14:11:36;10.70;;;8.10;;
20324;SDS011;10320;49.482;11.256;2024-01-30T14:14:02;10.13;;;8.10;;
20324;SDS011;10320;49.482;11.256;2024-01-30T14:16:28;9.50;;;7.63;;
20324;SDS011;10320;49.482;11.256;2024-01-30T14:18:54;12.40;;;8.90;;
20324;SDS011;10320;49.482;11.256;2024-01-30T14:21:20;10.83;;;8.20;;